createdAt,value
2023-03-13T00:01:22.908Z,2.83
2023-03-13T00:03:49.884Z,2.60
2023-03-13T00:06:16.863Z,3.20
2023-03-13T00:08:44.790Z,2.77
2023-03-13T00:11:12.458Z,3.40
2023-03-13T00:13:39.583Z,3.33
2023-03-13T00:16:07.669Z,4.00
2023-03-13T00:18:34.554Z,3.47
2023-03-13T00:21:02.137Z,3.47
2023-03-13T00:23:29.155Z,3.17
2023-03-13T00:25:59.959Z,3.17
2023-03-13T00:28:32.389Z,3.17
2023-03-13T00:31:03.832Z,3.10
2023-03-13T00:33:31.627Z,3.77
2023-03-13T00:35:59.249Z,2.77
2023-03-13T00:38:25.979Z,2.80
2023-03-13T00:40:58.881Z,3.00
2023-03-13T00:43:27.145Z,2.40
2023-03-13T00:45:53.771Z,2.57
2023-03-13T00:48:20.516Z,2.30
2023-03-13T00:50:47.156Z,2.50
2023-03-13T00:53:14.385Z,2.80
2023-03-13T00:55:51.198Z,2.60
2023-03-13T00:58:17.871Z,2.20
2023-03-13T01:00:44.824Z,2.60
2023-03-13T01:03:12.729Z,2.63
2023-03-13T01:05:39.626Z,2.50
2023-03-13T01:08:06.364Z,1.90
2023-03-13T01:10:33.725Z,2.53
2023-03-13T01:13:00.379Z,1.93
2023-03-13T01:15:27.020Z,1.70
2023-03-13T01:17:53.582Z,2.63
2023-03-13T01:20:20.219Z,1.67
2023-03-13T01:22:46.843Z,1.50
2023-03-13T01:25:13.557Z,1.73
2023-03-13T01:27:40.966Z,2.03
2023-03-13T01:30:07.981Z,2.00
2023-03-13T01:32:36.057Z,2.00
2023-03-13T01:35:02.810Z,1.77
2023-03-13T01:37:29.434Z,1.70
2023-03-13T01:39:56.097Z,1.53
2023-03-13T01:42:22.979Z,1.80
2023-03-13T01:44:54.705Z,1.50
2023-03-13T01:47:23.436Z,1.50
2023-03-13T01:50:10.769Z,1.03
2023-03-13T01:52:48.486Z,1.50
2023-03-13T01:55:21.306Z,1.63
2023-03-13T01:57:52.802Z,1.40
2023-03-13T02:00:25.113Z,1.40
2023-03-13T02:02:52.782Z,1.30
2023-03-13T02:05:21.780Z,0.97
2023-03-13T02:07:57.117Z,1.10
2023-03-13T02:10:25.334Z,1.30
2023-03-13T02:12:52.221Z,0.87
2023-03-13T02:15:20.134Z,0.93
2023-03-13T02:17:48.490Z,0.80
2023-03-13T02:20:16.403Z,0.80
2023-03-13T02:22:47.390Z,0.73
2023-03-13T02:25:20.459Z,0.70
2023-03-13T02:27:47.468Z,0.70
2023-03-13T02:30:15.317Z,0.70
2023-03-13T02:32:42.338Z,0.90
2023-03-13T02:35:10.362Z,0.90
2023-03-13T02:37:37.432Z,0.73
2023-03-13T02:40:10.996Z,0.50
2023-03-13T02:42:42.069Z,0.80
2023-03-13T02:45:09.455Z,1.00
2023-03-13T02:47:36.110Z,0.70
2023-03-13T02:50:02.790Z,0.60
2023-03-13T02:52:33.271Z,1.00
2023-03-13T02:55:06.811Z,0.80
2023-03-13T02:57:35.473Z,0.90
2023-03-13T03:00:02.642Z,1.07
2023-03-13T03:02:30.941Z,0.97
2023-03-13T03:04:59.186Z,0.83
2023-03-13T03:07:26.236Z,0.87
2023-03-13T03:09:52.898Z,1.03
2023-03-13T03:12:20.865Z,1.07
2023-03-13T03:14:47.953Z,1.33
2023-03-13T03:17:15.102Z,1.07
2023-03-13T03:19:42.067Z,1.20
2023-03-13T03:22:09.293Z,1.20
2023-03-13T03:24:35.921Z,1.20
2023-03-13T03:27:04.255Z,1.07
2023-03-13T03:29:37.102Z,1.13
2023-03-13T03:32:04.384Z,1.00
2023-03-13T03:34:31.793Z,0.83
2023-03-13T03:36:58.991Z,1.23
2023-03-13T03:39:28.068Z,1.20
2023-03-13T03:41:55.647Z,0.80
2023-03-13T03:44:23.435Z,0.77
2023-03-13T03:46:53.742Z,0.93
2023-03-13T03:49:21.670Z,0.80
2023-03-13T03:51:49.564Z,0.77
2023-03-13T03:54:20.916Z,0.90
2023-03-13T03:56:47.633Z,0.90
2023-03-13T03:59:14.436Z,1.00
2023-03-13T04:01:44.969Z,0.80
2023-03-13T04:04:13.122Z,0.80
2023-03-13T04:06:42.989Z,0.87
2023-03-13T04:09:10.557Z,0.87
2023-03-13T04:11:38.252Z,1.13
2023-03-13T04:14:06.745Z,0.90
2023-03-13T04:16:33.619Z,1.10
2023-03-13T04:19:00.921Z,1.10
2023-03-13T04:21:27.785Z,1.00
2023-03-13T04:24:05.178Z,1.00
2023-03-13T04:26:33.751Z,0.83
2023-03-13T04:29:00.881Z,1.10
2023-03-13T04:31:45.130Z,1.10
2023-03-13T04:34:20.424Z,1.10
2023-03-13T04:37:08.059Z,2.00
2023-03-13T04:39:34.619Z,1.10
2023-03-13T04:42:16.395Z,0.90
2023-03-13T04:44:58.941Z,0.90
2023-03-13T04:47:38.610Z,1.37
2023-03-13T04:50:11.129Z,1.17
2023-03-13T04:52:56.111Z,1.40
2023-03-13T04:55:41.841Z,1.27
2023-03-13T04:58:27.076Z,1.53
2023-03-13T05:01:12.350Z,1.33
2023-03-13T05:03:57.578Z,1.50
2023-03-13T05:06:50.306Z,1.57
2023-03-13T05:09:31.982Z,1.13
2023-03-13T05:12:18.863Z,1.43
2023-03-13T05:14:55.708Z,1.37
2023-03-13T05:17:33.472Z,1.40
2023-03-13T05:20:28.249Z,1.20
2023-03-13T05:23:20.899Z,1.30
2023-03-13T05:26:15.678Z,1.10
2023-03-13T05:29:11.222Z,1.20
2023-03-13T05:31:56.133Z,1.30
2023-03-13T05:34:33.155Z,1.20
2023-03-13T05:37:26.439Z,1.20
2023-03-13T05:40:13.823Z,1.30
2023-03-13T05:43:03.134Z,1.73
2023-03-13T05:45:46.536Z,1.57
2023-03-13T05:48:33.501Z,1.60
2023-03-13T05:51:30.105Z,1.30
2023-03-13T05:54:15.694Z,1.30
2023-03-13T05:57:00.846Z,1.60
2023-03-13T05:59:46.494Z,1.37
2023-03-13T06:02:33.449Z,1.80
2023-03-13T06:05:00.880Z,1.60
2023-03-13T06:07:27.741Z,1.50
2023-03-13T06:09:54.550Z,1.50
2023-03-13T06:12:21.167Z,1.57
2023-03-13T06:14:47.752Z,1.57
2023-03-13T06:17:23.282Z,2.87
2023-03-13T06:19:49.895Z,1.67
2023-03-13T06:22:16.866Z,1.37
2023-03-13T06:24:45.132Z,1.87
2023-03-13T06:27:11.850Z,1.50
2023-03-13T06:29:38.476Z,1.47
2023-03-13T06:32:05.491Z,2.00
2023-03-13T06:34:32.218Z,1.70
2023-03-13T06:37:00.567Z,1.47
2023-03-13T06:39:27.530Z,1.80
2023-03-13T06:41:54.149Z,1.80
2023-03-13T06:44:20.765Z,1.93
2023-03-13T06:46:47.473Z,1.70
2023-03-13T06:49:14.250Z,1.80
2023-03-13T06:51:40.852Z,2.07
2023-03-13T06:54:07.512Z,1.83
2023-03-13T06:56:34.307Z,1.87
2023-03-13T06:59:00.963Z,1.90
2023-03-13T07:01:27.573Z,2.13
2023-03-13T07:03:54.172Z,1.90
2023-03-13T07:06:20.813Z,1.90
2023-03-13T07:08:47.464Z,1.70
2023-03-13T07:11:14.732Z,1.83
2023-03-13T07:13:41.694Z,2.03
2023-03-13T07:16:10.206Z,2.00
2023-03-13T07:18:36.950Z,1.87
2023-03-13T07:21:07.166Z,2.40
2023-03-13T07:23:35.127Z,2.30
2023-03-13T07:26:02.948Z,1.90
2023-03-13T07:28:35.076Z,2.37
2023-03-13T07:31:04.403Z,2.30
2023-03-13T07:33:31.325Z,1.80
2023-03-13T07:35:58.519Z,2.47
2023-03-13T07:38:25.226Z,2.20
2023-03-13T07:40:52.660Z,1.70
2023-03-13T07:43:19.832Z,2.03
2023-03-13T07:45:53.753Z,2.30
2023-03-13T07:48:20.835Z,2.20
2023-03-13T07:50:47.426Z,1.90
2023-03-13T07:53:15.638Z,2.53
2023-03-13T07:55:42.850Z,2.37
2023-03-13T07:58:09.453Z,2.20
2023-03-13T08:00:36.803Z,1.97
2023-03-13T08:03:05.378Z,2.43
2023-03-13T08:05:32.014Z,2.07
2023-03-13T08:07:58.613Z,2.37
2023-03-13T08:10:25.554Z,2.80
2023-03-13T08:12:52.392Z,2.60
2023-03-13T08:15:23.732Z,2.87
2023-03-13T08:17:50.300Z,2.50
2023-03-13T08:20:17.718Z,2.43
2023-03-13T08:22:46.559Z,2.63
2023-03-13T08:25:13.733Z,2.60
2023-03-13T08:27:40.562Z,3.17
2023-03-13T08:30:07.684Z,2.80
2023-03-13T08:32:35.142Z,1.70
2023-03-13T08:35:01.921Z,2.67
2023-03-13T08:37:28.594Z,2.50
2023-03-13T08:39:56.794Z,2.50
2023-03-13T08:42:23.918Z,2.63
2023-03-13T08:44:50.535Z,3.00
2023-03-13T08:47:18.311Z,2.50
2023-03-13T08:49:45.046Z,3.07
2023-03-13T08:52:11.694Z,1.93
2023-03-13T08:54:38.254Z,2.73
2023-03-13T08:57:05.481Z,2.47
2023-03-13T08:59:32.067Z,2.50
2023-03-13T09:01:58.722Z,2.50
2023-03-13T09:04:25.402Z,2.37
2023-03-13T09:06:52.093Z,1.87
2023-03-13T09:09:18.682Z,2.23
2023-03-13T09:11:45.380Z,2.10
2023-03-13T09:14:12.175Z,1.47
2023-03-13T09:16:38.792Z,2.27
2023-03-13T09:19:06.037Z,2.23
2023-03-13T09:21:33.966Z,2.23
2023-03-13T09:24:00.943Z,2.03
2023-03-13T09:26:28.272Z,1.70
2023-03-13T09:28:55.306Z,1.80
2023-03-13T09:31:26.544Z,1.93
2023-03-13T09:33:53.780Z,1.30
2023-03-13T09:36:22.648Z,2.40
2023-03-13T09:38:50.175Z,1.90
2023-03-13T09:41:16.830Z,2.37
2023-03-13T09:43:47.973Z,1.73
2023-03-13T09:46:21.050Z,2.40
2023-03-13T09:48:53.185Z,1.90
2023-03-13T09:51:23.648Z,2.00
2023-03-13T09:54:03.937Z,2.03
2023-03-13T09:56:34.215Z,2.17
2023-03-13T09:59:12.323Z,1.70
2023-03-13T10:01:40.559Z,1.70
2023-03-13T10:04:26.710Z,1.67
2023-03-13T10:06:54.181Z,1.40
2023-03-13T10:09:28.927Z,1.57
2023-03-13T10:12:00.711Z,1.57
2023-03-13T10:14:34.687Z,1.40
2023-03-13T10:17:01.269Z,1.43
2023-03-13T10:19:32.000Z,1.40
2023-03-13T10:22:01.642Z,1.40
2023-03-13T10:24:33.848Z,1.57
2023-03-13T10:27:00.488Z,1.40
2023-03-13T10:29:28.465Z,1.20
2023-03-13T10:32:02.869Z,1.10
2023-03-13T10:34:30.946Z,1.20
2023-03-13T10:36:59.261Z,1.30
2023-03-13T10:39:27.308Z,1.00
2023-03-13T10:42:10.370Z,1.10
2023-03-13T10:44:37.385Z,1.40
2023-03-13T10:47:04.950Z,1.07
2023-03-13T10:49:32.249Z,1.10
2023-03-13T10:52:00.297Z,1.17
2023-03-13T10:54:28.146Z,1.10
2023-03-13T10:57:28.044Z,1.10
2023-03-13T10:59:55.302Z,0.90
2023-03-13T11:02:38.659Z,0.90
2023-03-13T11:05:23.955Z,1.20
2023-03-13T11:07:50.840Z,1.10
2023-03-13T11:10:20.558Z,0.90
2023-03-13T11:12:48.453Z,1.03
2023-03-13T11:15:16.865Z,0.70
2023-03-13T11:17:43.768Z,0.87
2023-03-13T11:20:21.669Z,1.00
2023-03-13T11:22:51.856Z,0.90
2023-03-13T11:25:37.765Z,1.00
2023-03-13T11:28:16.505Z,0.90
2023-03-13T11:30:55.435Z,0.90
2023-03-13T11:33:27.417Z,0.90
2023-03-13T11:36:00.335Z,0.60
2023-03-13T11:38:33.860Z,0.80
2023-03-13T11:41:00.390Z,0.77
2023-03-13T11:43:30.544Z,0.70
2023-03-13T11:46:04.335Z,0.80
2023-03-13T11:48:45.524Z,0.87
2023-03-13T11:51:20.986Z,0.80
2023-03-13T11:53:47.658Z,0.70
2023-03-13T11:56:21.950Z,0.80
2023-03-13T11:59:03.748Z,0.93
2023-03-13T12:01:34.887Z,0.60
2023-03-13T12:04:10.681Z,0.73
2023-03-13T12:07:06.480Z,1.03
2023-03-13T12:09:49.577Z,0.80
2023-03-13T12:12:21.472Z,1.10
2023-03-13T12:14:57.926Z,0.90
2023-03-13T12:17:36.047Z,0.83
2023-03-13T12:20:13.901Z,0.80
2023-03-13T12:22:45.581Z,0.90
2023-03-13T12:25:14.970Z,0.90
2023-03-13T12:27:43.381Z,0.83
2023-03-13T12:30:22.547Z,0.80
2023-03-13T12:33:01.965Z,0.80
2023-03-13T12:35:29.971Z,1.00
2023-03-13T12:38:02.881Z,0.80
2023-03-13T12:40:34.258Z,1.03
2023-03-13T12:43:06.145Z,0.90
2023-03-13T12:45:33.536Z,1.00
2023-03-13T12:48:03.209Z,0.90
2023-03-13T12:50:35.955Z,0.80
2023-03-13T12:53:05.403Z,1.00
2023-03-13T12:55:41.260Z,0.77
2023-03-13T12:58:26.415Z,0.90
2023-03-13T13:00:53.733Z,1.10
2023-03-13T13:03:30.009Z,1.20
2023-03-13T13:06:08.665Z,1.07
2023-03-13T13:08:55.559Z,0.80
2023-03-13T13:11:37.245Z,1.17
2023-03-13T13:14:07.019Z,1.10
2023-03-13T13:16:33.892Z,1.00
2023-03-13T13:19:20.523Z,1.00
2023-03-13T13:21:47.135Z,1.20
2023-03-13T13:24:32.238Z,1.50
2023-03-13T13:26:59.063Z,1.03
2023-03-13T13:29:26.815Z,1.20
2023-03-13T13:31:58.211Z,0.90
2023-03-13T13:34:31.284Z,1.07
2023-03-13T13:36:59.140Z,1.37
2023-03-13T13:39:32.588Z,0.93
2023-03-13T13:41:59.287Z,1.20
2023-03-13T13:44:27.591Z,1.33
2023-03-13T13:46:56.944Z,1.37
2023-03-13T13:49:29.556Z,1.23
2023-03-13T13:52:16.382Z,1.00
2023-03-13T13:54:44.698Z,1.20
2023-03-13T13:57:15.887Z,1.10
2023-03-13T13:59:43.486Z,0.93
2023-03-13T14:02:10.907Z,0.90
2023-03-13T14:04:40.615Z,1.00
2023-03-13T14:07:11.000Z,1.00
2023-03-13T14:09:37.644Z,1.00
2023-03-13T14:12:24.253Z,0.87
2023-03-13T14:15:06.507Z,0.90
2023-03-13T14:17:38.408Z,0.87
2023-03-13T14:20:09.256Z,0.80
2023-03-13T14:22:49.034Z,0.93
2023-03-13T14:25:15.842Z,1.00
2023-03-13T14:27:43.744Z,0.90
2023-03-13T14:30:11.412Z,1.10
2023-03-13T14:32:38.859Z,0.90
2023-03-13T14:35:06.225Z,0.90
2023-03-13T14:37:37.246Z,0.90
2023-03-13T14:40:11.249Z,0.87
2023-03-13T14:42:39.182Z,0.73
2023-03-13T14:45:13.547Z,0.90
2023-03-13T14:47:40.607Z,1.10
2023-03-13T14:50:14.944Z,0.87
2023-03-13T14:52:46.064Z,1.10
2023-03-13T14:55:21.971Z,1.00
2023-03-13T14:57:55.830Z,0.73
2023-03-13T15:00:33.866Z,1.03
2023-03-13T15:03:20.343Z,0.90
2023-03-13T15:05:50.244Z,0.80
2023-03-13T15:08:18.317Z,1.00
2023-03-13T15:10:45.857Z,0.90
2023-03-13T15:13:15.735Z,0.87
2023-03-13T15:15:42.817Z,1.10
2023-03-13T15:18:19.921Z,1.00
2023-03-13T15:20:50.904Z,0.97
2023-03-13T15:23:18.146Z,1.10
2023-03-13T15:25:45.652Z,1.00
2023-03-13T15:28:20.403Z,0.80
2023-03-13T15:30:48.036Z,0.90
2023-03-13T15:33:19.784Z,1.07
2023-03-13T15:35:46.838Z,1.00
2023-03-13T15:38:17.917Z,1.13
2023-03-13T15:40:45.024Z,0.87
2023-03-13T15:43:12.560Z,1.20
2023-03-13T15:45:40.657Z,1.10
2023-03-13T15:48:16.099Z,1.13
2023-03-13T15:50:43.326Z,1.37
2023-03-13T15:53:20.148Z,1.47
2023-03-13T15:55:47.812Z,1.30
2023-03-13T15:58:14.564Z,1.10
2023-03-13T16:00:41.592Z,1.47
2023-03-13T16:03:16.408Z,0.93
2023-03-13T16:05:43.860Z,1.10
2023-03-13T16:08:18.496Z,1.10
2023-03-13T16:10:52.852Z,1.30
2023-03-13T16:13:19.643Z,1.20
2023-03-13T16:15:47.497Z,1.30
2023-03-13T16:18:19.279Z,1.40
2023-03-13T16:20:46.081Z,1.50
2023-03-13T16:23:12.848Z,1.50
2023-03-13T16:25:39.855Z,1.40
2023-03-13T16:28:09.709Z,1.33
2023-03-13T16:30:36.535Z,1.60
2023-03-13T16:33:03.422Z,1.47
2023-03-13T16:35:30.211Z,1.50
2023-03-13T16:37:57.569Z,1.20
2023-03-13T16:40:26.006Z,1.20
2023-03-13T16:42:52.703Z,1.40
2023-03-13T16:45:19.579Z,1.63
2023-03-13T16:47:46.342Z,1.37
2023-03-13T16:50:14.126Z,1.30
2023-03-13T16:52:40.971Z,1.63
2023-03-13T16:55:07.794Z,1.80
2023-03-13T16:57:34.448Z,1.90
2023-03-13T17:00:01.047Z,1.97
2023-03-13T17:02:29.683Z,1.63
2023-03-13T17:04:56.451Z,1.47
2023-03-13T17:07:24.291Z,2.00
2023-03-13T17:09:51.431Z,1.77
2023-03-13T17:12:18.848Z,1.97
2023-03-13T17:14:46.029Z,1.37
2023-03-13T17:17:14.585Z,1.70
2023-03-13T17:19:41.194Z,1.40
2023-03-13T17:22:07.946Z,1.70
2023-03-13T17:24:34.671Z,1.60
2023-03-13T17:27:01.478Z,1.57
2023-03-13T17:29:28.104Z,1.60
2023-03-13T17:31:54.753Z,1.53
2023-03-13T17:34:21.598Z,2.00
2023-03-13T17:36:48.900Z,2.10
2023-03-13T17:39:16.012Z,1.50
2023-03-13T17:41:42.826Z,1.93
2023-03-13T17:44:09.567Z,1.93
2023-03-13T17:46:41.008Z,1.93
2023-03-13T17:49:08.080Z,1.60
2023-03-13T17:51:35.826Z,1.80
2023-03-13T17:54:02.756Z,1.70
2023-03-13T17:56:36.366Z,1.90
2023-03-13T17:59:04.332Z,1.70
2023-03-13T18:01:32.098Z,2.10
2023-03-13T18:03:59.146Z,1.57
2023-03-13T18:06:27.452Z,1.53
2023-03-13T18:08:55.473Z,1.87
2023-03-13T18:11:22.859Z,2.00
2023-03-13T18:13:49.935Z,2.07
2023-03-13T18:16:47.805Z,2.17
2023-03-13T18:19:17.553Z,2.17
2023-03-13T18:21:45.184Z,1.80
2023-03-13T18:24:12.540Z,2.10
2023-03-13T18:26:40.387Z,2.20
2023-03-13T18:29:15.522Z,1.57
2023-03-13T18:31:43.764Z,2.70
2023-03-13T18:34:11.397Z,2.07
2023-03-13T18:36:38.997Z,1.50
2023-03-13T18:39:06.296Z,1.77
2023-03-13T18:41:33.594Z,1.80
2023-03-13T18:44:03.486Z,1.80
2023-03-13T18:46:31.897Z,1.60
2023-03-13T18:48:59.156Z,1.87
2023-03-13T18:51:26.177Z,1.93
2023-03-13T18:53:53.777Z,1.80
2023-03-13T18:56:25.199Z,2.20
2023-03-13T18:58:52.600Z,2.00
2023-03-13T19:01:20.592Z,2.40
2023-03-13T19:03:47.595Z,2.13
2023-03-13T19:06:16.959Z,1.70
2023-03-13T19:08:43.619Z,1.87
2023-03-13T19:11:14.132Z,1.90
2023-03-13T19:13:40.826Z,2.17
2023-03-13T19:16:13.338Z,2.10
2023-03-13T19:18:40.055Z,1.97
2023-03-13T19:21:17.392Z,2.23
2023-03-13T19:23:44.424Z,1.70
2023-03-13T19:26:19.062Z,2.97
2023-03-13T19:28:46.535Z,2.33
2023-03-13T19:31:13.853Z,2.37
2023-03-13T19:33:40.508Z,2.00
2023-03-13T19:36:11.708Z,2.00
2023-03-13T19:38:39.998Z,2.03
2023-03-13T19:41:07.346Z,2.20
2023-03-13T19:43:34.107Z,2.27
2023-03-13T19:46:01.234Z,2.40
2023-03-13T19:48:28.228Z,3.00
2023-03-13T19:50:54.823Z,2.53
2023-03-13T19:53:21.419Z,2.47
2023-03-13T19:55:49.990Z,2.13
2023-03-13T19:58:16.692Z,2.17
2023-03-13T20:00:43.838Z,1.67
2023-03-13T20:03:10.485Z,2.47
2023-03-13T20:05:38.934Z,2.03
2023-03-13T20:08:05.662Z,1.63
2023-03-13T20:10:32.323Z,1.70
2023-03-13T20:12:59.478Z,1.90
2023-03-13T20:15:26.367Z,2.00
2023-03-13T20:17:52.982Z,1.50
2023-03-13T20:20:20.658Z,2.30
2023-03-13T20:22:47.263Z,2.23
2023-03-13T20:25:14.376Z,2.33
2023-03-13T20:27:43.462Z,2.27
2023-03-13T20:30:10.534Z,1.73
2023-03-13T20:32:41.189Z,1.73
2023-03-13T20:35:14.272Z,1.73
2023-03-13T20:37:41.697Z,1.90
2023-03-13T20:40:10.686Z,1.67
2023-03-13T20:42:40.141Z,1.50
2023-03-13T20:45:10.386Z,1.73
2023-03-13T20:47:37.096Z,1.90
2023-03-13T20:50:03.972Z,1.40
2023-03-13T20:52:30.623Z,1.70
2023-03-13T20:54:57.314Z,1.57
2023-03-13T20:57:24.412Z,1.60
2023-03-13T20:59:51.227Z,1.43
2023-03-13T21:02:17.837Z,2.30
2023-03-13T21:04:44.549Z,1.47
2023-03-13T21:07:11.573Z,1.73
2023-03-13T21:09:38.745Z,1.83
2023-03-13T21:12:05.704Z,1.90
2023-03-13T21:14:33.595Z,2.50
2023-03-13T21:17:00.288Z,1.80
2023-03-13T21:19:26.896Z,1.90
2023-03-13T21:21:54.254Z,1.80
2023-03-13T21:24:20.910Z,1.73
2023-03-13T21:26:47.602Z,1.63
2023-03-13T21:29:14.252Z,2.10
2023-03-13T21:31:41.081Z,1.93
2023-03-13T21:34:08.428Z,1.70
2023-03-13T21:36:35.283Z,2.20
2023-03-13T21:39:01.960Z,2.13
2023-03-13T21:41:28.694Z,2.13
2023-03-13T21:43:58.680Z,1.80
2023-03-13T21:46:25.385Z,1.60
2023-03-13T21:48:52.094Z,1.60
2023-03-13T21:51:18.852Z,1.77
2023-03-13T21:53:46.513Z,2.10
2023-03-13T21:56:16.138Z,1.70
2023-03-13T21:58:47.554Z,2.17
2023-03-13T22:01:15.156Z,1.70
2023-03-13T22:03:41.992Z,1.53
2023-03-13T22:06:13.580Z,1.43
2023-03-13T22:08:41.448Z,1.43
2023-03-13T22:11:08.251Z,1.53
2023-03-13T22:13:35.114Z,1.30
2023-03-13T22:16:01.911Z,1.50
2023-03-13T22:18:28.788Z,1.67
2023-03-13T22:20:59.226Z,1.40
2023-03-13T22:23:25.848Z,1.40
2023-03-13T22:25:55.053Z,1.30
2023-03-13T22:28:22.214Z,1.80
2023-03-13T22:30:48.819Z,1.50
2023-03-13T22:33:15.610Z,1.90
2023-03-13T22:35:45.171Z,1.87
2023-03-13T22:38:11.794Z,1.37
2023-03-13T22:40:38.384Z,1.67
2023-03-13T22:43:05.001Z,1.93
2023-03-13T22:45:34.669Z,1.60
2023-03-13T22:48:06.217Z,2.00
2023-03-13T22:50:33.688Z,1.50
2023-03-13T22:53:00.723Z,1.37
2023-03-13T22:55:27.383Z,1.70
2023-03-13T22:57:53.963Z,2.20
2023-03-13T23:00:20.949Z,1.37
2023-03-13T23:02:47.504Z,2.27
2023-03-13T23:05:14.097Z,1.40
2023-03-13T23:07:41.028Z,1.97
2023-03-13T23:10:12.166Z,1.67
2023-03-13T23:12:38.908Z,1.50
2023-03-13T23:15:07.193Z,1.90
2023-03-13T23:17:34.474Z,1.60
2023-03-13T23:20:10.853Z,1.50
2023-03-13T23:22:37.524Z,1.30
2023-03-13T23:25:04.639Z,2.00
2023-03-13T23:27:32.072Z,1.50
2023-03-13T23:30:01.905Z,2.07
2023-03-13T23:32:29.153Z,2.90
2023-03-13T23:34:58.626Z,1.57
2023-03-13T23:37:25.402Z,1.93
2023-03-13T23:39:51.965Z,1.77
2023-03-13T23:42:18.613Z,1.43
2023-03-13T23:44:45.494Z,1.70
2023-03-13T23:47:13.825Z,1.53
2023-03-13T23:49:40.479Z,1.90
2023-03-13T23:52:09.501Z,1.97
2023-03-13T23:54:36.456Z,1.90
2023-03-13T23:57:03.135Z,1.50
2023-03-13T23:59:30.377Z,1.70
